createdAt,value
2019-02-17T00:02:16.524Z,169.50
2019-02-17T00:04:47.333Z,162.07
2019-02-17T00:07:19.274Z,173.40
2019-02-17T00:09:49.999Z,183.33
2019-02-17T00:12:20.984Z,173.37
2019-02-17T00:14:51.424Z,174.37
2019-02-17T00:17:22.213Z,156.63
2019-02-17T00:19:53.059Z,133.90
2019-02-17T00:22:23.778Z,134.37
2019-02-17T00:24:54.984Z,141.27
2019-02-17T00:27:25.759Z,158.60
2019-02-17T00:29:56.389Z,139.23
2019-02-17T00:32:27.034Z,130.10
2019-02-17T00:34:57.513Z,152.33
2019-02-17T00:37:28.386Z,134.80
2019-02-17T00:39:59.218Z,115.87
2019-02-17T00:42:29.944Z,152.60
2019-02-17T00:45:00.993Z,151.83
2019-02-17T00:47:31.935Z,142.17
2019-02-17T00:50:02.525Z,172.57
2019-02-17T00:52:33.219Z,157.30
2019-02-17T00:55:03.928Z,177.13
2019-02-17T00:57:34.464Z,177.03
2019-02-17T01:00:05.314Z,182.63
2019-02-17T01:02:36.227Z,169.80
2019-02-17T01:05:07.186Z,182.13
2019-02-17T01:07:38.457Z,201.10
2019-02-17T01:10:09.302Z,210.03
2019-02-17T01:12:39.982Z,202.60
2019-02-17T01:15:11.432Z,197.50
2019-02-17T01:17:41.972Z,193.03
2019-02-17T01:20:12.487Z,193.13
2019-02-17T01:22:43.318Z,174.57
2019-02-17T01:25:13.871Z,165.53
2019-02-17T01:27:44.583Z,158.27
2019-02-17T01:30:16.126Z,152.67
2019-02-17T01:32:47.011Z,147.80
2019-02-17T01:35:17.631Z,154.73
2019-02-17T01:37:48.437Z,153.40
2019-02-17T01:40:19.182Z,141.30
2019-02-17T01:42:49.872Z,141.27
2019-02-17T01:45:20.408Z,134.33
2019-02-17T01:47:50.836Z,124.57
2019-02-17T01:50:21.613Z,114.30
2019-02-17T01:52:52.280Z,110.73
2019-02-17T01:55:23.090Z,107.50
2019-02-17T01:57:54.358Z,119.03
2019-02-17T02:00:25.355Z,118.40
2019-02-17T02:02:56.076Z,119.60
2019-02-17T02:05:27.266Z,120.07
2019-02-17T02:07:58.255Z,118.87
2019-02-17T02:10:29.116Z,121.67
2019-02-17T02:12:59.780Z,133.10
2019-02-17T02:15:30.885Z,138.37
2019-02-17T02:18:01.230Z,121.23
2019-02-17T02:20:32.049Z,118.93
2019-02-17T02:23:02.895Z,106.60
2019-02-17T02:25:33.494Z,117.93
2019-02-17T02:28:04.364Z,131.37
2019-02-17T02:30:35.020Z,146.03
2019-02-17T02:33:05.559Z,139.33
2019-02-17T02:35:36.388Z,134.07
2019-02-17T02:38:06.804Z,149.77
2019-02-17T02:40:37.220Z,143.93
2019-02-17T02:43:07.854Z,140.80
2019-02-17T02:45:38.600Z,134.70
2019-02-17T02:48:09.457Z,135.77
2019-02-17T02:50:39.882Z,118.67
2019-02-17T02:53:10.988Z,126.67
2019-02-17T02:55:41.607Z,130.40
2019-02-17T02:58:12.234Z,128.90
2019-02-17T03:00:43.073Z,131.77
2019-02-17T03:03:13.493Z,106.77
2019-02-17T03:05:55.076Z,79.13
2019-02-17T03:08:25.588Z,77.70
2019-02-17T03:10:56.138Z,77.50
2019-02-17T03:13:26.623Z,81.73
2019-02-17T03:15:57.238Z,80.67
2019-02-17T03:18:28.008Z,86.30
2019-02-17T03:20:58.602Z,81.03
2019-02-17T03:23:31.357Z,86.60
2019-02-17T03:26:01.835Z,100.00
2019-02-17T03:28:32.679Z,106.87
2019-02-17T03:31:03.309Z,87.87
2019-02-17T03:33:33.873Z,77.47
2019-02-17T03:36:04.333Z,88.77
2019-02-17T03:38:34.667Z,79.77
2019-02-17T03:41:05.487Z,72.87
2019-02-17T03:43:35.902Z,63.87
2019-02-17T03:46:06.442Z,57.33
2019-02-17T03:48:37.508Z,50.70
2019-02-17T03:51:08.128Z,56.57
2019-02-17T03:53:38.834Z,57.10
2019-02-17T03:56:10.178Z,33.57
2019-02-17T03:58:40.594Z,39.63
2019-02-17T04:01:11.320Z,60.50
2019-02-17T04:03:41.857Z,123.67
2019-02-17T04:06:12.537Z,66.90
2019-02-17T04:08:43.738Z,47.17
2019-02-17T04:11:14.236Z,41.87
2019-02-17T04:13:44.967Z,86.63
2019-02-17T04:16:15.757Z,281.03
2019-02-17T04:18:46.333Z,186.67
2019-02-17T04:21:17.062Z,135.67
2019-02-17T04:23:47.542Z,109.93
2019-02-17T04:26:18.265Z,88.07
2019-02-17T04:28:48.963Z,107.97
2019-02-17T04:31:19.627Z,106.83
2019-02-17T04:33:50.387Z,113.83
2019-02-17T04:36:21.097Z,75.13
2019-02-17T04:38:52.323Z,131.60
2019-02-17T04:41:22.843Z,195.33
2019-02-17T04:43:53.512Z,252.40
2019-02-17T04:46:24.073Z,163.17
2019-02-17T04:48:54.732Z,151.03
2019-02-17T04:51:25.428Z,185.70
2019-02-17T04:53:56.183Z,214.53
2019-02-17T04:56:26.872Z,253.43
2019-02-17T04:58:57.542Z,213.90
2019-02-17T05:01:28.313Z,141.30
2019-02-17T05:03:58.763Z,181.10
2019-02-17T05:06:29.267Z,198.57
2019-02-17T05:09:00.042Z,107.03
2019-02-17T05:11:31.943Z,105.20
2019-02-17T05:14:02.379Z,134.90
2019-02-17T05:16:34.298Z,141.20
2019-02-17T05:19:04.795Z,162.00
2019-02-17T05:21:35.442Z,101.90
2019-02-17T05:24:06.024Z,138.77
2019-02-17T05:26:36.679Z,114.40
2019-02-17T05:29:07.162Z,135.00
2019-02-17T05:31:37.733Z,106.53
2019-02-17T05:34:08.417Z,108.57
2019-02-17T05:36:38.923Z,107.13
2019-02-17T05:39:09.604Z,95.60
2019-02-17T05:41:41.618Z,86.73
2019-02-17T05:44:12.299Z,95.07
2019-02-17T05:46:42.891Z,137.73
2019-02-17T05:49:13.473Z,103.33
2019-02-17T05:51:44.003Z,88.43
2019-02-17T05:54:14.571Z,110.63
2019-02-17T05:56:45.098Z,126.13
2019-02-17T05:59:15.793Z,89.63
2019-02-17T06:01:46.687Z,113.03
2019-02-17T06:04:17.637Z,170.93
2019-02-17T06:06:48.270Z,109.93
2019-02-17T06:09:19.226Z,93.47
2019-02-17T06:11:49.548Z,129.80
2019-02-17T06:14:20.418Z,124.93
2019-02-17T06:16:51.014Z,126.00
2019-02-17T06:19:21.653Z,95.97
2019-02-17T06:21:52.343Z,87.07
2019-02-17T06:24:23.489Z,87.20
2019-02-17T06:26:53.988Z,145.07
2019-02-17T06:29:24.713Z,108.63
2019-02-17T06:31:55.599Z,132.77
2019-02-17T06:34:26.178Z,91.60
2019-02-17T06:36:56.893Z,68.17
2019-02-17T06:39:27.533Z,71.47
2019-02-17T06:41:58.039Z,77.87
2019-02-17T06:44:28.559Z,110.17
2019-02-17T06:47:02.003Z,80.03
2019-02-17T06:49:32.423Z,87.80
2019-02-17T06:52:02.923Z,68.70
2019-02-17T06:54:33.701Z,89.93
2019-02-17T06:57:10.826Z,69.63
2019-02-17T06:59:41.689Z,63.83
2019-02-17T07:02:12.346Z,72.70
2019-02-17T07:05:04.730Z,55.80
2019-02-17T07:07:35.639Z,54.57
2019-02-17T07:10:06.368Z,61.50
2019-02-17T07:12:37.234Z,71.27
2019-02-17T07:15:07.963Z,71.37
2019-02-17T07:17:38.886Z,79.83
2019-02-17T07:20:10.334Z,74.90
2019-02-17T07:22:41.044Z,82.87
2019-02-17T07:25:11.574Z,76.70
2019-02-17T07:27:42.474Z,69.27
2019-02-17T07:30:13.044Z,77.20
2019-02-17T07:32:43.789Z,75.83
2019-02-17T07:35:14.444Z,87.23
2019-02-17T07:37:45.059Z,92.00
2019-02-17T07:40:15.446Z,93.80
2019-02-17T07:42:46.213Z,108.53
2019-02-17T07:45:16.856Z,98.90
2019-02-17T07:47:47.332Z,93.73
2019-02-17T07:50:18.134Z,90.17
2019-02-17T07:52:48.714Z,100.40
2019-02-17T07:55:19.369Z,87.20
2019-02-17T07:57:51.361Z,94.17
2019-02-17T08:00:22.017Z,95.40
2019-02-17T08:02:52.904Z,103.80
2019-02-17T08:05:23.815Z,105.37
2019-02-17T08:07:54.689Z,92.27
2019-02-17T08:10:25.330Z,104.70
2019-02-17T08:12:56.390Z,92.73
2019-02-17T08:15:26.989Z,98.67
2019-02-17T08:17:57.827Z,101.80
2019-02-17T08:20:29.054Z,94.47
2019-02-17T08:22:59.624Z,90.13
2019-02-17T08:25:30.613Z,84.83
2019-02-17T08:28:01.205Z,92.23
2019-02-17T08:30:31.999Z,83.83
2019-02-17T08:33:02.664Z,89.27
2019-02-17T08:35:33.290Z,90.80
2019-02-17T08:38:04.096Z,80.27
2019-02-17T08:40:34.714Z,79.67
2019-02-17T08:43:05.228Z,84.00
2019-02-17T08:45:35.895Z,84.87
2019-02-17T08:48:06.514Z,72.83
2019-02-17T08:50:37.488Z,88.53
2019-02-17T08:53:08.569Z,69.30
2019-02-17T08:55:39.197Z,73.13
2019-02-17T08:58:10.055Z,68.27
2019-02-17T09:00:40.859Z,65.27
2019-02-17T09:03:11.464Z,62.80
2019-02-17T09:05:44.418Z,58.30
2019-02-17T09:08:15.019Z,58.03
2019-02-17T09:10:45.836Z,57.60
2019-02-17T09:13:18.474Z,51.80
2019-02-17T09:15:48.669Z,57.23
2019-02-17T09:18:19.235Z,54.00
2019-02-17T09:20:49.855Z,54.10
2019-02-17T09:23:20.450Z,55.03
2019-02-17T09:25:51.020Z,49.60
2019-02-17T09:28:21.549Z,58.03
2019-02-17T09:30:52.159Z,50.63
2019-02-17T09:33:22.815Z,51.70
2019-02-17T09:35:54.690Z,55.40
2019-02-17T09:38:25.240Z,51.47
2019-02-17T09:40:55.979Z,55.07
2019-02-17T09:43:26.559Z,49.57
2019-02-17T09:45:57.139Z,50.60
2019-02-17T09:48:27.718Z,55.50
2019-02-17T09:50:58.359Z,48.07
2019-02-17T09:53:29.094Z,48.13
2019-02-17T09:56:00.548Z,49.97
2019-02-17T09:58:31.041Z,47.53
2019-02-17T10:01:01.554Z,53.87
2019-02-17T10:03:32.087Z,57.03
2019-02-17T10:06:02.506Z,53.40
2019-02-17T10:08:32.951Z,56.37
2019-02-17T10:11:03.838Z,53.37
2019-02-17T10:13:34.674Z,63.63
2019-02-17T10:16:05.369Z,59.70
2019-02-17T10:18:36.184Z,57.43
2019-02-17T10:21:06.642Z,58.17
2019-02-17T10:23:37.229Z,62.73
2019-02-17T10:26:08.124Z,55.27
2019-02-17T10:28:42.397Z,56.77
2019-02-17T10:31:10.839Z,58.17
2019-02-17T10:33:41.414Z,54.67
2019-02-17T10:36:11.924Z,49.70
2019-02-17T10:38:42.561Z,47.33
2019-02-17T10:41:13.490Z,50.43
2019-02-17T10:43:44.390Z,55.00
2019-02-17T10:46:15.078Z,46.87
2019-02-17T10:48:45.695Z,48.63
2019-02-17T10:51:16.344Z,46.87
2019-02-17T10:53:46.958Z,45.47
2019-02-17T10:56:18.119Z,46.47
2019-02-17T10:58:48.646Z,50.03
2019-02-17T11:01:19.074Z,51.53
2019-02-17T11:04:06.945Z,55.77
2019-02-17T11:06:37.839Z,48.83
2019-02-17T11:09:24.598Z,46.57
2019-02-17T11:11:55.549Z,49.80
2019-02-17T11:14:27.991Z,52.27
2019-02-17T11:16:58.904Z,50.83
2019-02-17T11:19:29.966Z,45.57
2019-02-17T11:22:01.189Z,45.77
2019-02-17T11:24:31.879Z,51.57
2019-02-17T11:27:02.950Z,49.40
2019-02-17T11:29:34.296Z,47.70
2019-02-17T11:32:06.389Z,47.20
2019-02-17T11:34:37.465Z,49.33
2019-02-17T11:37:08.990Z,45.97
2019-02-17T11:39:40.239Z,53.47
2019-02-17T11:42:11.022Z,50.57
2019-02-17T11:44:42.900Z,54.90
2019-02-17T11:47:13.779Z,52.90
2019-02-17T11:49:44.761Z,50.10
2019-02-17T11:52:15.285Z,51.57
2019-02-17T11:54:47.631Z,54.80
2019-02-17T11:57:18.834Z,59.03
2019-02-17T11:59:49.679Z,59.77
2019-02-17T12:02:24.966Z,60.13
2019-02-17T12:04:52.719Z,61.53
2019-02-17T12:07:23.369Z,56.03
2019-02-17T12:09:53.949Z,64.33
2019-02-17T12:12:29.229Z,68.90
2019-02-17T12:15:00.041Z,65.70
2019-02-17T12:17:30.894Z,61.80
2019-02-17T12:20:19.929Z,59.23
2019-02-17T12:22:56.084Z,66.23
2019-02-17T12:25:32.484Z,63.73
2019-02-17T12:28:06.634Z,70.47
2019-02-17T12:30:38.129Z,68.83
2019-02-17T12:33:18.254Z,63.40
2019-02-17T12:35:41.194Z,65.27
2019-02-17T12:38:12.229Z,72.60
2019-02-17T12:40:42.919Z,67.13
2019-02-17T12:43:13.569Z,72.57
2019-02-17T12:45:44.358Z,64.37
2019-02-17T12:48:14.989Z,76.30
2019-02-17T12:50:45.790Z,71.70
2019-02-17T12:53:16.738Z,73.83
2019-02-17T12:55:47.569Z,83.97
2019-02-17T12:58:20.133Z,81.67
2019-02-17T13:00:51.032Z,75.43
2019-02-17T13:03:28.225Z,80.23
2019-02-17T13:05:54.100Z,87.90
2019-02-17T13:08:24.899Z,82.40
2019-02-17T13:10:55.504Z,95.37
2019-02-17T13:13:26.136Z,89.23
2019-02-17T13:15:57.145Z,96.90
2019-02-17T13:18:27.869Z,84.37
2019-02-17T13:20:58.354Z,84.37
2019-02-17T13:23:28.999Z,83.67
2019-02-17T13:25:59.759Z,90.43
2019-02-17T13:28:30.269Z,88.60
2019-02-17T13:31:01.054Z,89.83
2019-02-17T13:33:38.851Z,88.13
2019-02-17T13:36:03.924Z,92.07
2019-02-17T13:38:34.595Z,95.33
2019-02-17T13:41:05.300Z,84.70
2019-02-17T13:43:36.199Z,88.57
2019-02-17T13:46:07.195Z,93.00
2019-02-17T13:48:37.924Z,94.43
2019-02-17T13:51:08.504Z,97.83
2019-02-17T13:53:39.400Z,91.30
2019-02-17T13:56:10.039Z,93.67
2019-02-17T13:58:40.877Z,100.10
2019-02-17T14:01:11.657Z,94.00
2019-02-17T14:03:48.599Z,92.33
2019-02-17T14:06:14.750Z,83.17
2019-02-17T14:08:45.544Z,87.20
2019-02-17T14:11:16.050Z,89.37
2019-02-17T14:13:46.793Z,98.53
2019-02-17T14:16:17.514Z,93.97
2019-02-17T14:18:47.965Z,91.33
2019-02-17T14:21:18.620Z,92.87
2019-02-17T14:23:49.569Z,96.23
2019-02-17T14:26:20.234Z,99.23
2019-02-17T14:28:50.784Z,92.40
2019-02-17T14:31:21.556Z,93.53
2019-02-17T14:33:58.327Z,101.80
2019-02-17T14:36:24.269Z,93.53
2019-02-17T14:38:54.800Z,98.87
2019-02-17T14:41:25.334Z,89.67
2019-02-17T14:43:55.951Z,90.30
2019-02-17T14:46:26.654Z,93.27
2019-02-17T14:48:57.244Z,93.57
2019-02-17T14:51:27.774Z,89.67
2019-02-17T14:53:58.504Z,90.60
2019-02-17T14:56:29.510Z,89.07
2019-02-17T14:59:02.394Z,88.63
2019-02-17T15:01:32.849Z,92.60
2019-02-17T15:04:08.745Z,92.83
2019-02-17T15:06:35.725Z,87.33
2019-02-17T15:09:08.393Z,94.83
2019-02-17T15:11:38.989Z,98.97
2019-02-17T15:14:09.738Z,90.57
2019-02-17T15:16:40.457Z,92.23
2019-02-17T15:19:10.894Z,98.07
2019-02-17T15:21:41.544Z,93.37
2019-02-17T15:24:12.575Z,96.27
2019-02-17T15:26:43.079Z,90.77
2019-02-17T15:29:13.619Z,92.50
2019-02-17T15:31:44.427Z,93.20
2019-02-17T15:34:18.706Z,91.17
2019-02-17T15:36:47.645Z,88.80
2019-02-17T15:39:18.360Z,84.00
2019-02-17T15:41:48.904Z,89.53
2019-02-17T15:44:19.664Z,87.33
2019-02-17T15:46:50.244Z,86.93
2019-02-17T15:49:20.974Z,91.43
2019-02-17T15:51:51.823Z,85.77
2019-02-17T15:54:22.579Z,91.37
2019-02-17T15:56:54.037Z,85.50
2019-02-17T15:59:25.581Z,82.00
2019-02-17T16:01:57.239Z,81.23
2019-02-17T16:04:28.793Z,91.63
2019-02-17T16:06:59.624Z,87.70
2019-02-17T16:09:30.201Z,90.97
2019-02-17T16:12:00.724Z,83.70
2019-02-17T16:14:31.469Z,89.17
2019-02-17T16:17:02.044Z,91.33
2019-02-17T16:19:32.565Z,79.07
2019-02-17T16:22:03.304Z,86.27
2019-02-17T16:24:33.927Z,87.90
2019-02-17T16:27:04.620Z,83.87
2019-02-17T16:29:35.209Z,93.80
2019-02-17T16:32:05.884Z,87.53
2019-02-17T16:34:38.721Z,88.80
2019-02-17T16:37:09.069Z,82.40
2019-02-17T16:39:39.827Z,81.27
2019-02-17T16:42:10.634Z,85.80
2019-02-17T16:44:41.476Z,87.37
2019-02-17T16:47:12.069Z,87.90
2019-02-17T16:49:42.739Z,84.87
2019-02-17T16:52:13.619Z,91.37
2019-02-17T16:54:44.279Z,92.90
2019-02-17T16:57:14.865Z,96.27
2019-02-17T16:59:45.619Z,93.40
2019-02-17T17:02:16.184Z,91.20
2019-02-17T17:04:48.874Z,101.70
2019-02-17T17:07:19.015Z,97.50
2019-02-17T17:09:49.554Z,98.77
2019-02-17T17:12:20.174Z,93.17
2019-02-17T17:14:50.969Z,97.20
2019-02-17T17:17:21.810Z,92.73
2019-02-17T17:19:52.639Z,93.30
2019-02-17T17:22:23.815Z,92.63
2019-02-17T17:24:54.614Z,92.47
2019-02-17T17:27:25.371Z,90.97
2019-02-17T17:29:56.274Z,92.40
2019-02-17T17:32:27.199Z,90.23
2019-02-17T17:34:59.164Z,96.10
2019-02-17T17:37:30.186Z,92.50
2019-02-17T17:40:01.016Z,88.13
2019-02-17T17:42:31.936Z,95.63
2019-02-17T17:45:02.969Z,90.67
2019-02-17T17:47:33.635Z,89.67
2019-02-17T17:50:04.199Z,94.40
2019-02-17T17:52:35.235Z,90.63
2019-02-17T17:55:25.919Z,98.43
2019-02-17T17:57:56.919Z,92.40
2019-02-17T18:00:28.785Z,94.10
2019-02-17T18:03:28.802Z,100.07
2019-02-17T18:06:02.770Z,103.40
2019-02-17T18:08:45.794Z,107.63
2019-02-17T18:11:31.470Z,128.53
2019-02-17T18:14:03.354Z,115.60
2019-02-17T18:17:17.159Z,109.43
2019-02-17T18:19:47.845Z,109.90
2019-02-17T18:22:18.523Z,111.33
2019-02-17T18:24:49.094Z,106.27
2019-02-17T18:27:20.475Z,104.13
2019-02-17T18:29:51.140Z,95.47
2019-02-17T18:32:22.765Z,106.97
2019-02-17T18:35:19.637Z,108.77
2019-02-17T18:38:29.459Z,92.47
2019-02-17T18:42:01.506Z,122.40
2019-02-17T18:44:32.369Z,112.03
2019-02-17T18:47:04.170Z,105.30
2019-02-17T18:50:00.315Z,79.93
2019-02-17T18:53:19.179Z,96.77
2019-02-17T18:56:31.310Z,90.23
2019-02-17T18:59:24.604Z,86.57
2019-02-17T19:02:34.459Z,87.13
2019-02-17T19:05:58.584Z,97.03
2019-02-17T19:08:29.304Z,95.23
2019-02-17T19:10:59.944Z,98.50
2019-02-17T19:13:30.774Z,96.10
2019-02-17T19:16:01.704Z,97.47
2019-02-17T19:18:32.744Z,95.20
2019-02-17T19:21:03.524Z,85.77
2019-02-17T19:23:34.026Z,86.93
2019-02-17T19:26:04.834Z,91.43
2019-02-17T19:28:35.362Z,98.23
2019-02-17T19:32:06.876Z,97.23
2019-02-17T19:34:55.794Z,94.20
2019-02-17T19:37:26.844Z,98.53
2019-02-17T19:40:45.784Z,82.27
2019-02-17T19:43:55.296Z,104.77
2019-02-17T19:47:23.609Z,87.67
2019-02-17T19:49:54.625Z,93.63
2019-02-17T19:52:25.430Z,96.63
2019-02-17T19:54:56.244Z,93.77
2019-02-17T19:57:27.009Z,96.97
2019-02-17T19:59:58.116Z,83.30
2019-02-17T20:02:50.944Z,79.93
2019-02-17T20:05:24.665Z,87.27
2019-02-17T20:08:02.927Z,79.73
2019-02-17T20:11:19.977Z,84.30
2019-02-17T20:14:14.249Z,85.03
2019-02-17T20:16:45.824Z,80.93
2019-02-17T20:19:16.639Z,84.60
2019-02-17T20:21:47.987Z,67.30
2019-02-17T20:24:18.988Z,68.93
2019-02-17T20:27:24.419Z,67.27
2019-02-17T20:29:56.024Z,67.60
2019-02-17T20:32:37.839Z,58.57
2019-02-17T20:35:38.506Z,67.13
2019-02-17T20:38:50.616Z,62.17
2019-02-17T20:41:51.342Z,61.10
2019-02-17T20:44:36.096Z,60.70
2019-02-17T20:50:49.195Z,59.90
2019-02-17T20:53:33.071Z,55.03
2019-02-17T20:59:52.191Z,52.27
2019-02-17T21:02:29.044Z,50.93
2019-02-17T21:05:24.941Z,49.53
2019-02-17T21:08:00.744Z,55.67
2019-02-17T21:10:31.373Z,53.17
2019-02-17T21:13:02.675Z,48.03
2019-02-17T21:19:02.756Z,44.63
2019-02-17T21:21:33.553Z,42.50
2019-02-17T21:24:04.361Z,39.77
2019-02-17T21:26:35.254Z,42.40
2019-02-17T21:29:06.055Z,47.17
2019-02-17T21:31:36.959Z,50.17
2019-02-17T21:34:07.931Z,54.20
2019-02-17T21:36:38.710Z,44.77
2019-02-17T21:39:09.524Z,49.87
2019-02-17T21:41:40.422Z,53.67
2019-02-17T21:44:11.220Z,50.67
2019-02-17T21:46:41.994Z,48.43
2019-02-17T21:49:12.942Z,50.57
2019-02-17T21:51:43.625Z,47.70
2019-02-17T21:54:14.369Z,44.53
2019-02-17T21:56:45.386Z,47.83
2019-02-17T21:59:16.034Z,50.43
2019-02-17T22:01:47.079Z,53.57
2019-02-17T22:04:17.959Z,38.40
2019-02-17T22:06:48.645Z,41.50
2019-02-17T22:09:19.222Z,46.00
2019-02-17T22:11:50.123Z,49.77
2019-02-17T22:14:20.694Z,53.73
2019-02-17T22:16:51.359Z,45.07
2019-02-17T22:19:22.097Z,43.73
2019-02-17T22:21:52.844Z,51.33
2019-02-17T22:24:23.714Z,50.07
2019-02-17T22:26:54.621Z,48.77
2019-02-17T22:29:25.186Z,45.20
2019-02-17T22:31:55.844Z,48.50
2019-02-17T22:34:26.808Z,46.67
2019-02-17T22:36:57.334Z,51.27
2019-02-17T22:39:28.094Z,48.27
2019-02-17T22:41:58.999Z,52.80
2019-02-17T22:44:29.796Z,52.17
2019-02-17T22:47:00.559Z,50.37
2019-02-17T22:49:31.530Z,49.30
2019-02-17T22:52:02.120Z,60.67
2019-02-17T22:55:37.144Z,51.13
2019-02-17T22:58:03.798Z,47.83
2019-02-17T23:00:48.784Z,52.63
2019-02-17T23:03:19.448Z,48.03
2019-02-17T23:05:50.269Z,55.97
2019-02-17T23:08:21.061Z,56.30
2019-02-17T23:10:51.734Z,55.50
2019-02-17T23:13:22.429Z,52.83
2019-02-17T23:15:53.020Z,51.13
2019-02-17T23:18:23.444Z,54.23
2019-02-17T23:20:53.959Z,58.37
2019-02-17T23:23:24.504Z,54.47
2019-02-17T23:25:55.083Z,65.40
2019-02-17T23:28:25.589Z,54.03
2019-02-17T23:30:56.219Z,53.87
2019-02-17T23:33:26.715Z,55.13
2019-02-17T23:35:57.093Z,51.77
2019-02-17T23:38:27.543Z,51.87
2019-02-17T23:40:58.023Z,48.17
2019-02-17T23:43:28.499Z,52.57
2019-02-17T23:45:59.214Z,51.33
2019-02-17T23:48:29.693Z,51.30
2019-02-17T23:51:00.107Z,48.23
2019-02-17T23:53:30.679Z,51.30
2019-02-17T23:56:01.283Z,49.67
2019-02-17T23:58:31.640Z,45.90
